createdAt,value
2023-03-08T00:10:38.073Z,4.90
2023-03-08T00:21:05.772Z,4.91
2023-03-08T00:31:31.447Z,4.94
2023-03-08T00:41:57.413Z,5.02
2023-03-08T00:52:22.977Z,5.00
2023-03-08T01:02:48.720Z,4.99
2023-03-08T01:13:14.792Z,4.99
2023-03-08T01:23:42.587Z,5.00
2023-03-08T01:34:08.720Z,4.98
2023-03-08T01:44:54.863Z,4.92
2023-03-08T01:55:21.771Z,4.82
2023-03-08T02:05:48.643Z,4.75
2023-03-08T02:16:16.902Z,4.78
2023-03-08T02:26:42.422Z,4.78
2023-03-08T02:37:08.799Z,4.78
2023-03-08T02:47:34.487Z,4.73
2023-03-08T02:58:00.543Z,4.68
2023-03-08T03:08:26.459Z,4.69
2023-03-08T03:18:55.492Z,4.69
2023-03-08T03:29:21.418Z,4.64
2023-03-08T03:39:47.435Z,4.66
2023-03-08T03:50:14.452Z,4.67
2023-03-08T04:00:39.936Z,4.64
2023-03-08T04:11:05.475Z,4.61
2023-03-08T04:21:31.508Z,4.60
2023-03-08T04:32:00.942Z,4.60
2023-03-08T04:42:26.767Z,4.59
2023-03-08T04:52:52.303Z,4.55
2023-03-08T05:03:18.551Z,4.45
2023-03-08T05:13:44.476Z,4.44
2023-03-08T05:24:10.830Z,4.39
2023-03-08T05:34:36.275Z,4.40
2023-03-08T05:45:02.213Z,4.38
2023-03-08T05:55:28.145Z,4.37
2023-03-08T06:05:53.657Z,4.36
2023-03-08T06:16:19.346Z,4.29
2023-03-08T06:26:45.088Z,4.26
2023-03-08T06:37:11.143Z,4.38
2023-03-08T06:47:37.099Z,4.42
2023-03-08T06:58:02.470Z,4.63
2023-03-08T07:08:28.214Z,5.21
2023-03-08T07:18:54.380Z,5.60
2023-03-08T07:29:20.327Z,6.04
2023-03-08T07:39:46.678Z,6.43
2023-03-08T07:50:14.022Z,6.71
2023-03-08T08:00:39.520Z,6.94
2023-03-08T08:11:10.809Z,7.23
2023-03-08T08:21:36.636Z,7.16
2023-03-08T08:32:04.256Z,7.10
2023-03-08T08:42:29.950Z,7.37
2023-03-08T08:52:57.485Z,7.67
2023-03-08T09:03:23.601Z,7.80
2023-03-08T09:13:49.104Z,7.81
2023-03-08T09:24:15.144Z,7.89
2023-03-08T09:34:40.966Z,8.24
2023-03-08T09:45:24.839Z,8.22
2023-03-08T09:55:55.876Z,8.41
2023-03-08T10:06:37.838Z,8.61
2023-03-08T10:17:13.064Z,8.60
2023-03-08T10:27:38.777Z,8.76
2023-03-08T10:38:05.170Z,8.69
2023-03-08T10:48:30.781Z,8.67
2023-03-08T10:58:59.615Z,8.54
2023-03-08T11:09:28.089Z,8.46
2023-03-08T11:20:00.314Z,8.31
2023-03-08T11:30:51.073Z,8.16
2023-03-08T11:41:24.431Z,8.04
2023-03-08T11:51:58.856Z,8.02
2023-03-08T12:02:30.009Z,8.10
2023-03-08T12:13:00.125Z,8.45
2023-03-08T12:23:32.393Z,8.56
2023-03-08T12:33:59.915Z,8.56
2023-03-08T12:44:29.313Z,8.48
2023-03-08T12:55:01.696Z,8.43
2023-03-08T13:05:35.447Z,8.45
2023-03-08T13:16:20.528Z,8.48
2023-03-08T13:27:01.206Z,8.51
2023-03-08T13:37:29.470Z,8.46
2023-03-08T13:47:57.657Z,8.40
2023-03-08T13:58:33.186Z,8.36
2023-03-08T14:09:02.754Z,8.41
2023-03-08T14:19:31.560Z,8.50
2023-03-08T14:30:05.497Z,8.50
2023-03-08T14:40:35.591Z,8.50
2023-03-08T14:51:03.124Z,8.56
2023-03-08T15:01:30.470Z,8.54
2023-03-08T15:11:59.983Z,8.23
2023-03-08T15:22:25.706Z,8.10
2023-03-08T15:32:51.630Z,8.04
2023-03-08T15:43:17.479Z,7.97
2023-03-08T15:53:43.425Z,7.77
2023-03-08T16:04:09.473Z,7.72
2023-03-08T16:14:35.946Z,7.65
2023-03-08T16:25:02.236Z,7.43
2023-03-08T16:35:28.266Z,7.27
2023-03-08T16:45:58.944Z,7.19
2023-03-08T16:56:26.620Z,7.15
2023-03-08T17:06:52.757Z,7.12
2023-03-08T17:17:18.920Z,7.13
2023-03-08T17:27:44.549Z,7.06
2023-03-08T17:38:10.786Z,7.04
2023-03-08T17:48:38.365Z,7.12
2023-03-08T17:59:04.215Z,7.18
2023-03-08T18:09:32.291Z,7.27
2023-03-08T18:19:56.556Z,7.14
2023-03-08T18:30:22.756Z,6.98
2023-03-08T18:40:48.589Z,6.81
2023-03-08T18:51:16.492Z,6.72
2023-03-08T19:01:42.651Z,6.68
2023-03-08T19:12:09.143Z,6.70
2023-03-08T19:22:34.761Z,6.74
2023-03-08T19:33:00.500Z,6.87
2023-03-08T19:43:26.384Z,7.00
2023-03-08T19:53:52.082Z,7.09
2023-03-08T20:04:17.910Z,7.01
2023-03-08T20:14:43.723Z,6.98
2023-03-08T20:25:12.666Z,7.04
2023-03-08T20:35:38.371Z,7.21
2023-03-08T20:46:07.232Z,7.23
2023-03-08T20:56:33.168Z,7.26
2023-03-08T21:06:59.613Z,7.25
2023-03-08T21:17:26.285Z,7.35
2023-03-08T21:27:51.875Z,7.42
2023-03-08T21:38:18.131Z,7.42
2023-03-08T21:48:44.591Z,7.39
2023-03-08T21:59:10.600Z,7.41
2023-03-08T22:09:36.324Z,7.52
2023-03-08T22:20:01.835Z,7.59
2023-03-08T22:30:27.759Z,7.70
2023-03-08T22:40:53.204Z,7.98
2023-03-08T22:51:21.383Z,8.00
2023-03-08T23:01:47.183Z,7.92
2023-03-08T23:12:13.325Z,7.76
2023-03-08T23:22:39.347Z,7.71
2023-03-08T23:33:14.107Z,7.66
2023-03-08T23:43:40.591Z,7.60
2023-03-08T23:54:07.343Z,7.61
